עמוד ראשי
METAR-TAF:

METAR-TAF

שדות תעופה :

Oruro, בוליביה

קו רוחב: 17-58S, קו אורך: 067-04W, גובה: 3072מטר

תצפית מזג אוויר נוכחית

הדו"ח נערך לפני 1 שעות ו 11דקות, בשעה 22:00 UTC
רוח 3קשר מכיוון מערב
טמפרטורת 15 צלסיוס
לחות 27%
לחץ 1033 hPa
ראות 10 קילומטר או יותר

METAR: SLOR 152200Z 27003KT 9999 NSC 15/M04 Q1033

זמן: 19:11 (23:11 UTC)


TAF: חסר

תצפיות ותחזיות מזג אוויר לגבי יותר מ- 4,000 שדות תעופה ברחבי העולם. דוחות METAR ו- TAF.

התחנות הזמינות מסומנות בנקודות צהובות ואדומות על גבי המפה.

העבר את העכבר לנקודה הצבעונית על מנת לראות את שם התחנה.

לאחר מכן, לחץ כדי לראות את תוכן ואת תחזיות מזג האוויר.

כדי לשנות את המפה: לחץ על הכפתורים הירוקים עם הפלוס השחור כדי להתקרב; על הכפתור הירוק עם המקף כדי להתרחק; או בחיצים הירוקים למפות סמוכות.


METAR-TAF: